createdAt,value
2023-05-10T00:01:58.360Z,4.17
2023-05-10T00:05:59.186Z,3.97
2023-05-10T00:09:59.348Z,4.20
2023-05-10T00:14:02.158Z,4.00
2023-05-10T00:18:02.828Z,4.33
2023-05-10T00:22:03.719Z,4.30
2023-05-10T00:26:04.468Z,3.87
2023-05-10T00:30:09.148Z,4.53
2023-05-10T00:34:09.536Z,4.23
2023-05-10T00:38:10.644Z,4.13
2023-05-10T00:42:11.045Z,4.00
2023-05-10T00:46:14.548Z,4.53
2023-05-10T00:50:15.712Z,4.10
2023-05-10T00:54:18.338Z,4.27
2023-05-10T00:58:19.121Z,4.43
2023-05-10T01:02:22.115Z,4.50
2023-05-10T01:06:22.361Z,4.23
2023-05-10T01:10:23.161Z,3.90
2023-05-10T01:14:24.749Z,4.07
2023-05-10T01:18:29.127Z,4.17
2023-05-10T01:23:05.888Z,3.90
2023-05-10T01:27:40.174Z,4.10
2023-05-10T01:32:25.097Z,4.60
2023-05-10T01:36:35.082Z,4.70
2023-05-10T01:40:44.701Z,4.90
2023-05-10T01:44:56.826Z,4.70
2023-05-10T01:49:04.347Z,4.80
2023-05-10T01:53:10.612Z,4.80
2023-05-10T01:57:15.248Z,5.23
2023-05-10T02:01:17.602Z,4.90
2023-05-10T02:05:24.072Z,4.77
2023-05-10T02:09:27.747Z,5.53
2023-05-10T02:13:30.907Z,4.90
2023-05-10T02:17:34.457Z,4.73
2023-05-10T02:21:39.499Z,5.17
2023-05-10T02:25:41.555Z,5.97
2023-05-10T02:29:42.702Z,6.20
2023-05-10T02:33:46.110Z,6.20
2023-05-10T02:37:50.729Z,5.83
2023-05-10T02:41:53.854Z,6.20
2023-05-10T02:45:54.380Z,6.17
2023-05-10T02:49:54.818Z,5.10
2023-05-10T02:54:01.086Z,5.70
2023-05-10T02:58:04.926Z,5.77
2023-05-10T03:02:06.352Z,6.40
2023-05-10T03:06:06.942Z,6.33
2023-05-10T03:10:12.312Z,6.17
2023-05-10T03:14:29.148Z,6.10
2023-05-10T03:18:41.178Z,7.00
2023-05-10T03:22:53.795Z,7.27
2023-05-10T03:27:05.572Z,7.30
2023-05-10T03:31:08.227Z,7.57
2023-05-10T03:35:11.932Z,7.47
2023-05-10T03:39:12.435Z,7.57
2023-05-10T03:43:15.321Z,7.63
2023-05-10T03:47:16.128Z,7.10
2023-05-10T03:51:16.889Z,7.00
2023-05-10T03:55:17.383Z,7.20
2023-05-10T03:59:20.655Z,6.80
2023-05-10T04:03:21.474Z,6.63
2023-05-10T04:07:21.912Z,7.23
2023-05-10T04:11:23.130Z,7.23
2023-05-10T04:15:26.366Z,6.27
2023-05-10T04:19:26.912Z,6.87
2023-05-10T04:23:27.323Z,7.37
2023-05-10T04:27:27.803Z,7.27
2023-05-10T04:31:30.818Z,7.20
2023-05-10T04:35:31.139Z,7.77
2023-05-10T04:39:31.348Z,9.00
2023-05-10T04:43:31.877Z,9.00
2023-05-10T04:47:34.665Z,8.80
2023-05-10T04:51:35.395Z,9.10
2023-05-10T04:55:35.997Z,9.10
2023-05-10T04:59:36.196Z,8.83
2023-05-10T05:03:39.242Z,9.27
2023-05-10T05:07:39.620Z,9.37
2023-05-10T05:11:41.038Z,8.57
2023-05-10T05:15:41.329Z,8.43
2023-05-10T05:19:44.145Z,8.17
2023-05-10T05:23:44.368Z,9.03
2023-05-10T05:27:44.589Z,7.47
2023-05-10T05:31:44.907Z,8.23
2023-05-10T05:35:51.875Z,8.53
2023-05-10T05:39:52.766Z,9.70
2023-05-10T05:43:52.991Z,9.33
2023-05-10T05:47:53.331Z,9.30
2023-05-10T05:51:56.259Z,8.57
2023-05-10T05:55:58.302Z,8.27
2023-05-10T05:59:58.480Z,11.20
2023-05-10T06:03:58.878Z,10.53
2023-05-10T06:08:04.153Z,10.80
2023-05-10T06:12:04.374Z,10.03
2023-05-10T06:16:04.868Z,9.50
2023-05-10T06:20:05.163Z,10.67
2023-05-10T06:24:09.706Z,9.10
2023-05-10T06:28:09.887Z,9.10
2023-05-10T06:32:10.520Z,9.43
2023-05-10T06:36:11.111Z,8.37
2023-05-10T06:40:15.877Z,8.43
2023-05-10T06:44:16.727Z,8.67
2023-05-10T06:48:17.024Z,8.70
2023-05-10T06:52:17.248Z,7.47
2023-05-10T06:56:22.653Z,7.37
2023-05-10T07:00:23.894Z,7.40
2023-05-10T07:04:24.181Z,7.27
2023-05-10T07:08:24.396Z,6.97
2023-05-10T07:12:27.319Z,6.50
2023-05-10T07:16:27.538Z,6.45
2023-05-10T07:20:28.255Z,6.50
2023-05-10T07:24:28.683Z,5.93
2023-05-10T07:28:31.483Z,5.57
2023-05-10T07:32:31.824Z,5.65
2023-05-10T07:36:32.135Z,6.00
2023-05-10T07:40:33.164Z,5.50
2023-05-10T07:44:35.985Z,5.22
2023-05-10T07:48:36.113Z,6.10
2023-05-10T07:52:36.743Z,5.20
2023-05-10T07:56:37.424Z,4.93
2023-05-10T08:00:40.696Z,5.80
2023-05-10T08:04:41.280Z,6.15
2023-05-10T08:08:41.940Z,4.68
2023-05-10T08:12:42.383Z,1.10
2023-05-10T08:16:45.248Z,1.00
2023-05-10T08:20:45.579Z,1.00
2023-05-10T08:24:47.156Z,0.90
2023-05-10T08:28:47.652Z,1.40
2023-05-10T08:32:50.626Z,1.25
2023-05-10T08:36:51.697Z,1.00
2023-05-10T08:40:57.679Z,0.68
2023-05-10T08:45:00.904Z,0.80
2023-05-10T08:49:08.814Z,0.88
2023-05-10T08:53:14.355Z,0.90
2023-05-10T08:57:15.017Z,0.80
2023-05-10T09:01:17.533Z,1.02
2023-05-10T09:05:20.715Z,0.80
2023-05-10T09:09:21.860Z,0.85
2023-05-10T09:13:24.851Z,0.90
2023-05-10T09:17:28.356Z,0.90
2023-05-10T09:21:31.810Z,1.00
2023-05-10T09:25:34.364Z,0.80
2023-05-10T09:29:44.413Z,1.30
2023-05-10T09:33:48.879Z,1.00
2023-05-10T09:37:55.062Z,1.00
2023-05-10T09:41:55.332Z,0.90
2023-05-10T09:45:56.728Z,0.90
2023-05-10T09:49:59.493Z,0.80
2023-05-10T09:54:19.533Z,0.88
2023-05-10T09:58:19.837Z,0.90
2023-05-10T10:02:20.753Z,0.75
2023-05-10T10:06:30.219Z,0.80
2023-05-10T10:10:35.696Z,0.80
2023-05-10T10:14:36.454Z,0.80
2023-05-10T10:18:39.902Z,0.70
2023-05-10T10:22:41.431Z,0.80
2023-05-10T10:26:46.614Z,0.77
2023-05-10T10:30:50.851Z,0.88
2023-05-10T10:34:52.051Z,0.82
2023-05-10T10:39:04.392Z,0.68
2023-05-10T10:43:28.587Z,0.70
2023-05-10T10:47:34.435Z,0.90
2023-05-10T10:51:40.567Z,0.70
2023-05-10T10:55:51.244Z,0.70
2023-05-10T10:59:54.346Z,0.70
2023-05-10T11:04:22.295Z,0.70
2023-05-10T11:08:30.211Z,1.13
2023-05-10T11:12:30.481Z,1.70
2023-05-10T11:16:46.509Z,1.35
2023-05-10T11:20:47.998Z,1.23
2023-05-10T11:25:02.118Z,0.98
2023-05-10T11:29:05.574Z,1.02
2023-05-10T11:33:09.187Z,1.05
2023-05-10T11:37:09.538Z,1.00
2023-05-10T11:41:12.570Z,1.13
2023-05-10T11:45:14.357Z,1.00
2023-05-10T11:49:17.475Z,1.40
2023-05-10T11:53:17.887Z,0.90
2023-05-10T11:57:18.119Z,1.00
2023-05-10T12:01:18.463Z,1.20
2023-05-10T12:05:21.699Z,1.13
2023-05-10T12:09:35.337Z,1.00
2023-05-10T12:13:36.142Z,0.90
2023-05-10T12:17:37.784Z,1.00
2023-05-10T12:21:42.540Z,1.00
2023-05-10T12:25:44.286Z,1.00
2023-05-10T12:29:47.941Z,1.40
2023-05-10T12:33:52.718Z,1.30
2023-05-10T12:37:55.612Z,1.10
2023-05-10T12:41:56.309Z,1.10
2023-05-10T12:45:56.942Z,1.00
2023-05-10T12:49:57.226Z,1.20
2023-05-10T12:54:00.041Z,1.10
2023-05-10T12:58:00.620Z,0.90
2023-05-10T13:02:01.821Z,1.08
2023-05-10T13:06:02.017Z,1.20
2023-05-10T13:10:05.276Z,0.88
2023-05-10T13:14:07.208Z,1.40
2023-05-10T13:18:08.084Z,1.67
2023-05-10T13:22:08.546Z,1.35
2023-05-10T13:26:11.813Z,1.70
2023-05-10T13:30:13.959Z,2.20
2023-05-10T13:34:14.300Z,1.30
2023-05-10T13:38:14.911Z,1.73
2023-05-10T13:42:17.941Z,1.42
2023-05-10T13:46:18.877Z,1.65
2023-05-10T13:50:20.065Z,2.08
2023-05-10T13:54:21.508Z,3.38
2023-05-10T13:58:25.184Z,2.92
2023-05-10T14:02:27.046Z,3.15
2023-05-10T14:06:28.147Z,2.92
2023-05-10T14:10:28.410Z,2.63
2023-05-10T14:14:31.321Z,2.30
2023-05-10T14:18:31.838Z,1.50
2023-05-10T14:22:32.055Z,1.30
2023-05-10T14:26:32.444Z,1.50
2023-05-10T14:30:36.523Z,1.15
2023-05-10T14:34:36.875Z,1.20
2023-05-10T14:38:37.308Z,1.08
2023-05-10T14:42:37.579Z,1.20
2023-05-10T14:46:40.672Z,1.17
2023-05-10T14:50:43.726Z,1.23
2023-05-10T14:54:44.207Z,1.27
2023-05-10T14:58:44.382Z,1.02
2023-05-10T15:02:47.301Z,1.10
2023-05-10T15:06:48.312Z,1.70
2023-05-10T15:10:48.869Z,1.40
2023-05-10T15:14:49.160Z,1.15
2023-05-10T15:18:52.161Z,1.40
2023-05-10T15:22:52.422Z,1.90
2023-05-10T15:26:52.582Z,1.40
2023-05-10T15:30:53.512Z,1.50
2023-05-10T15:34:56.823Z,2.00
2023-05-10T15:38:57.796Z,2.38
2023-05-10T15:42:58.457Z,2.90
2023-05-10T15:46:59.653Z,1.90
2023-05-10T15:51:02.948Z,1.65
2023-05-10T15:55:13.122Z,1.55
2023-05-10T15:59:13.512Z,3.13
2023-05-10T16:03:14.707Z,2.30
2023-05-10T16:07:17.562Z,2.80
2023-05-10T16:11:17.841Z,2.40
2023-05-10T16:15:18.488Z,2.45
2023-05-10T16:19:19.124Z,1.98
2023-05-10T16:23:22.879Z,2.20
2023-05-10T16:27:23.232Z,1.42
2023-05-10T16:31:23.614Z,2.13
2023-05-10T16:35:24.251Z,1.33
2023-05-10T16:39:27.265Z,1.50
2023-05-10T16:43:27.424Z,1.13
2023-05-10T16:47:27.694Z,1.30
2023-05-10T16:51:28.040Z,1.60
2023-05-10T16:55:31.022Z,1.17
2023-05-10T16:59:31.795Z,1.60
2023-05-10T17:03:32.129Z,4.10
2023-05-10T17:07:32.436Z,4.00
2023-05-10T17:11:35.789Z,3.30
2023-05-10T17:15:36.166Z,2.97
2023-05-10T17:19:36.573Z,3.10
2023-05-10T17:23:36.742Z,3.37
2023-05-10T17:27:39.687Z,3.17
2023-05-10T17:31:40.330Z,3.97
2023-05-10T17:35:40.609Z,4.50
2023-05-10T17:39:40.903Z,4.10
2023-05-10T17:43:44.744Z,3.50
2023-05-10T17:47:45.252Z,4.57
2023-05-10T17:51:48.123Z,4.03
2023-05-10T17:55:48.501Z,4.40
2023-05-10T17:59:51.488Z,2.93
2023-05-10T18:03:53.064Z,2.80
2023-05-10T18:07:53.560Z,2.67
2023-05-10T18:11:54.169Z,2.80
2023-05-10T18:15:57.096Z,2.23
2023-05-10T18:19:57.554Z,2.90
2023-05-10T18:23:57.847Z,2.80
2023-05-10T18:27:58.306Z,2.93
2023-05-10T18:32:01.132Z,2.80
2023-05-10T18:36:02.692Z,2.13
2023-05-10T18:40:04.959Z,2.70
2023-05-10T18:44:05.678Z,2.80
2023-05-10T18:48:09.166Z,2.70
2023-05-10T18:52:09.619Z,2.70
2023-05-10T18:56:10.466Z,3.50
2023-05-10T19:00:13.279Z,3.03
2023-05-10T19:04:16.365Z,3.40
2023-05-10T19:08:16.831Z,3.00
2023-05-10T19:12:17.220Z,3.23
2023-05-10T19:16:20.272Z,3.10
2023-05-10T19:20:24.434Z,3.00
2023-05-10T19:24:25.979Z,3.17
2023-05-10T19:28:26.766Z,3.53
2023-05-10T19:32:27.196Z,3.83
2023-05-10T19:36:30.073Z,4.73
2023-05-10T19:40:30.413Z,3.60
2023-05-10T19:44:30.849Z,3.80
2023-05-10T19:48:31.903Z,3.37
2023-05-10T19:52:34.862Z,3.23
2023-05-10T19:56:35.674Z,3.00
2023-05-10T20:00:36.240Z,2.80
2023-05-10T20:04:36.799Z,2.83
2023-05-10T20:08:39.660Z,2.63
2023-05-10T20:12:39.937Z,3.17
2023-05-10T20:16:40.389Z,2.90
2023-05-10T20:20:40.825Z,3.70
2023-05-10T20:24:45.500Z,4.50
2023-05-10T20:28:46.770Z,5.87
2023-05-10T20:32:48.014Z,4.17
2023-05-10T20:36:48.370Z,3.70
2023-05-10T20:40:51.390Z,3.47
2023-05-10T20:44:51.977Z,3.50
2023-05-10T20:48:52.190Z,3.30
2023-05-10T20:52:53.218Z,3.23
2023-05-10T20:56:56.379Z,3.33
2023-05-10T21:00:56.662Z,3.20
2023-05-10T21:04:57.910Z,2.93
2023-05-10T21:08:58.503Z,3.47
2023-05-10T21:13:01.609Z,3.20
2023-05-10T21:17:01.793Z,3.80
2023-05-10T21:21:02.219Z,3.60
2023-05-10T21:25:02.484Z,3.77
2023-05-10T21:29:05.400Z,3.60
2023-05-10T21:33:06.013Z,4.03
2023-05-10T21:37:06.291Z,4.27
2023-05-10T21:41:10.404Z,4.30
2023-05-10T21:45:14.605Z,4.77
2023-05-10T21:49:14.865Z,4.60
2023-05-10T21:53:15.151Z,4.50
2023-05-10T21:57:15.429Z,4.70
2023-05-10T22:01:18.370Z,4.63
2023-05-10T22:05:19.611Z,5.07
2023-05-10T22:09:21.990Z,4.83
2023-05-10T22:13:22.222Z,4.73
2023-05-10T22:17:25.126Z,5.23
2023-05-10T22:21:26.063Z,5.77
2023-05-10T22:25:26.268Z,6.30
2023-05-10T22:29:26.574Z,6.40
2023-05-10T22:33:29.388Z,6.40
2023-05-10T22:37:29.657Z,6.70
2023-05-10T22:41:29.859Z,6.93
2023-05-10T22:45:30.602Z,8.20
2023-05-10T22:49:33.509Z,7.97
2023-05-10T22:53:33.739Z,7.83
2023-05-10T22:57:34.517Z,7.33
2023-05-10T23:01:34.876Z,7.97
2023-05-10T23:05:37.769Z,8.10
2023-05-10T23:09:37.926Z,7.57
2023-05-10T23:13:38.098Z,8.50
2023-05-10T23:17:38.214Z,8.37
2023-05-10T23:21:41.224Z,9.20
2023-05-10T23:25:41.818Z,8.70
2023-05-10T23:29:42.091Z,8.43
2023-05-10T23:33:42.255Z,8.00
2023-05-10T23:37:45.812Z,7.80
2023-05-10T23:41:46.135Z,8.00
2023-05-10T23:45:46.743Z,7.30
2023-05-10T23:49:47.106Z,7.20
2023-05-10T23:53:49.996Z,7.00
2023-05-10T23:57:50.200Z,7.07
